Station: WOOMERA

  Atmospheric Gas Attenuation - ITU Rec 676-11   --------------- db/100km ---------------
Date Time Temp RH % AH g/m3 Dew Point Wind Direction Speed kph Gust kph Barometer mB Rainfall Since 9am 24GHz 47GHz 76GHz 122GHz 134GHz 241GHz
17 03:00 6.9 62 4.78 0.1 7 9 1021.2 0 11.7 22.0 28.1 73.1 56.5 190.7
17 02:50 6.5 61 4.58 -0.5 9 9 1021.1 0 11.3 21.8 27.5 71.4 54.3 182.8
17 02:40 7 59 4.57 -0.4 13 13 1020.9 0 11.2 21.6 27.3 70.8 53.8 181.2
17 02:30 6.9 58 4.47 -0.8 11 11 1021 0 11.0 21.5 27.0 69.9 52.7 177.1
17 02:20 7.3 59 4.66 -0.2 11 11 1021 0 11.4 21.7 27.5 71.5 54.8 184.5
17 02:10 6.9 58 4.47 -0.8 11 11 1021 0 11.0 21.5 27.0 69.9 52.7 177.1
17 02:00 7.5 57 4.56 -0.5 11 13 1021.2 0 11.2 21.5 27.1 70.3 53.4 179.7
17 01:50 7.4 58 4.61 -0.3 9 11 1021.2 0 11.3 21.6 27.3 70.9 54.1 182.1
17 01:40 7 58 4.5 -0.7 11 11 1021.4 0 11.1 21.6 27.0 70.2 53.0 178.3
17 01:30 7.1 58 4.53 -0.6 11 13 1021.5 0 11.2 21.6 27.1 70.4 53.3 179.3
17 01:20 7.5 57 4.56 -0.5 9 11 1021.6 0 11.2 21.5 27.1 70.3 53.4 179.8
17 01:10 7.9 56 4.6 -0.3 9 11 1021.6 0 11.3 21.5 27.1 70.4 53.6 180.6
17 01:00 8.3 55 4.64 -0.2 11 13 1021.8 0 11.4 21.5 27.1 70.4 53.9 181.5
17 00:50 7.5 55 4.4 -0.9 13 13 1021.7 0 10.9 21.3 26.5 68.8 51.5 172.9
17 00:40 8.2 53 4.44 -0.8 15 15 1021.8 0 10.9 21.2 26.4 68.6 51.5 173.1
17 00:30 9.2 52 4.64 -0.1 13 15 1022.2 0 11.3 21.3 26.9 69.7 53.3 179.5
17 00:20 9.1 52 4.62 -0.2 11 13 1022.2 0 11.3 21.3 26.8 69.6 53.1 178.9
17 00:10 8.9 50 4.38 -0.9 11 11 1022.3 0 10.8 21.0 26.0 67.4 50.4 169.2
17 00:00 10.2 48 4.57 -0.3 11 11 1022.7 0 11.2 21.0 26.3 68.2 51.8 174.5
16 23:50 10.1 48 4.54 -0.4 11 11 1022.5 0 11.1 20.9 26.2 68.0 51.5 173.4
16 23:40 11.1 48 4.84 0.5 9 9 1022.5 0 11.7 21.1 27.0 70.0 54.4 183.7
16 23:30 10.5 48 4.66 0 7 9 1022.8 0 11.3 21.0 26.5 68.8 52.7 177.6
16 23:20 11 47 4.71 0.1 7 9 1022.6 0 11.4 21.0 26.5 68.9 52.9 178.5
16 23:10 11.1 47 4.74 0.2 6 7 1022.6 0 11.5 21.0 26.6 69.1 53.2 179.6
16 23:00 10.8 47 4.65 0 4 7 1022.9 0 11.3 21.0 26.4 68.5 52.4 176.5
16 22:50 10.8 45 4.45 -0.6 6 6 1022.7 0 10.9 20.7 25.7 66.6 50.0 168.2
16 22:40 12.9 43 4.85 0.6 7 9 1022.7 0 11.7 20.8 26.4 68.6 53.3 180.1
16 22:30 12.9 41 4.62 0 9 9 1022.9 0 11.2 20.4 25.6 66.4 50.7 170.8
16 22:20 12.5 43 4.73 0.3 9 9 1022.7 0 11.4 20.7 26.1 67.8 52.2 176.1
16 22:10 13.4 41 4.77 0.4 9 9 1022.8 0 11.5 20.5 26.0 67.4 52.1 175.8
16 22:00 12.7 43 4.79 0.5 9 9 1023.1 0 11.5 20.7 26.3 68.2 52.8 178.2
16 21:50 12.2 43 4.64 0 7 7 1022.9 0 11.2 20.6 25.9 67.2 51.4 173.1
16 21:40 12.6 42 4.65 0 7 7 1022.9 0 11.2 20.5 25.8 67.0 51.2 172.7
16 21:30 11.7 43 4.5 -0.4 9 11 1023.2 0 11.0 20.5 25.6 66.3 50.1 168.5
16 21:20 11.7 43 4.5 -0.4 11 11 1023 0 11.0 20.5 25.6 66.3 50.1 168.5
16 21:10 12.1 41 4.4 -0.7 11 13 1023 0 10.7 20.3 25.1 65.0 48.6 163.6
16 21:00 13.2 39 4.48 -0.4 9 9 1023.2 0 10.9 20.2 25.1 64.9 48.9 164.6
16 20:50 14.3 38 4.67 0.2 9 9 1023.1 0 11.2 20.2 25.4 65.8 50.4 170.0
16 20:40 13.9 38 4.56 -0.2 9 9 1023 0 11.0 20.1 25.1 65.1 49.4 166.4
16 20:30 14.3 38 4.67 0.2 0 0 1023.3 0 11.2 20.2 25.4 65.8 50.4 170.0
16 20:20 14.6 37 4.63 0.1 0 0 1023.1 0 11.1 20.1 25.2 65.2 49.8 167.8
16 20:10 13.2 40 4.59 -0.1 4 6 1023.1 0 11.1 20.3 25.4 65.9 50.2 169.0
16 20:00 14.2 39 4.76 0.5 7 11 1023.3 0 11.4 20.4 25.7 66.7 51.5 173.8
16 19:50 13.7 37 4.38 -0.7 9 9 1023 0 10.6 19.9 24.6 63.6 47.5 159.6
16 19:40 15 35 4.49 -0.3 11 13 1022.9 0 10.8 19.8 24.6 63.6 47.9 161.4
16 19:30 15.1 35 4.52 -0.2 11 13 1023.1 0 10.9 19.8 24.6 63.8 48.2 162.4
16 19:20 14.6 35 4.38 -0.7 11 11 1022.8 0 10.6 19.7 24.3 62.9 46.9 157.9
16 19:10 15.3 34 4.44 -0.4 11 13 1022.8 0 10.7 19.7 24.3 62.9 47.2 158.9
16 19:00 14.8 35 4.43 -0.5 11 13 1023 0 10.7 19.8 24.4 63.2 47.4 159.5
16 18:50 15.9 33 4.47 -0.3 9 9 1022.7 0 10.8 19.6 24.2 62.7 47.2 158.9
16 18:40 16.4 33 4.61 0.1 9 9 1022.7 0 11.0 19.7 24.5 63.6 48.4 163.3
16 18:30 16.1 33 4.52 -0.2 9 9 1022.8 0 10.9 19.6 24.3 63.0 47.6 160.4
16 18:20 16.5 32 4.49 -0.2 9 9 1022.6 0 10.8 19.5 24.1 62.4 47.0 158.5
16 18:10 16.7 32 4.55 -0.1 9 9 1022.5 0 10.9 19.5 24.2 62.8 47.6 160.4
16 18:00 16.8 31 4.43 -0.4 7 9 1022.5 0 10.7 19.3 23.8 61.6 46.2 155.6
16 17:50 17.4 30 4.45 -0.3 7 7 1022.3 0 10.7 19.2 23.7 61.4 46.1 155.2
16 17:40 17.7 30 4.53 -0.1 9 9 1022.3 0 10.8 19.3 23.9 61.8 46.8 157.7
16 17:30 18.6 28 4.46 -0.2 7 7 1022.4 0 10.7 19.0 23.4 60.6 45.5 153.4
16 17:20 19.1 27 4.43 -0.3 7 9 1022.2 0 10.6 18.9 23.2 59.9 44.9 151.3
16 17:10 19.4 26 4.34 -0.6 9 9 1022.1 0 10.4 18.7 22.8 59.0 43.8 147.5
16 17:00 19.7 26 4.41 -0.3 9 11 1022.2 0 10.5 18.7 22.9 59.3 44.4 149.5
16 16:50 20 26 4.49 -0.1 9 9 1022 0 10.7 18.8 23.1 59.8 45.1 151.9
16 16:40 19.9 26 4.47 -0.1 13 13 1022 0 10.6 18.8 23.1 59.7 44.9 151.3
16 16:30 20.4 25 4.42 -0.3 11 17 1022.4 0 10.5 18.6 22.8 58.9 44.1 148.7
16 16:20 20.3 25 4.4 -0.3 9 11 1022.2 0 10.5 18.6 22.8 58.8 44.0 148.1
16 16:10 20.1 25 4.35 -0.5 9 11 1022.3 0 10.4 18.6 22.7 58.6 43.6 146.6
16 16:00 20.6 25 4.47 -0.1 9 17 1022.5 0 10.6 18.6 22.9 59.2 44.5 150.1
16 15:50 20.4 25 4.42 -0.3 9 11 1022.3 0 10.5 18.6 22.8 58.9 44.1 148.7
16 15:40 20.3 25 4.4 -0.3 15 17 1022.3 0 10.5 18.6 22.8 58.8 44.0 148.1
16 15:30 20.3 25 4.4 -0.3 7 11 1022.6 0 10.5 18.6 22.8 58.9 44.0 148.1
16 15:20 20.7 25 4.5 0 6 6 1022.4 0 10.7 18.6 23.0 59.4 44.8 151.0
16 15:10 20.6 25 4.47 -0.1 7 9 1022.4 0 10.6 18.6 22.9 59.2 44.5 150.1
16 15:00 20.5 25 4.45 -0.2 6 9 1022.7 0 10.6 18.6 22.9 59.1 44.4 149.6
16 14:50 20.3 25 4.4 -0.3 7 7 1022.5 0 10.5 18.6 22.8 58.9 44.0 148.1
16 14:40 20.3 26 4.57 0.2 11 13 1022.6 0 10.8 18.8 23.3 60.3 45.8 154.4
16 14:30 20.2 26 4.55 0.1 7 13 1022.8 0 10.8 18.8 23.3 60.2 45.6 153.8
16 14:20 20.1 27 4.69 0.5 4 7 1022.7 0 11.1 19.0 23.7 61.5 47.1 159.2
16 14:10 19.6 27 4.56 0.1 9 9 1022.8 0 10.8 19.0 23.5 60.7 46.0 155.3
16 14:00 20.1 27 4.69 0.5 9 13 1023 0 11.1 19.0 23.7 61.5 47.1 159.2
16 13:50 19.6 27 4.56 0.1 4 7 1023 0 10.8 19.0 23.5 60.7 46.1 155.3
16 13:40 19.6 28 4.73 0.6 9 11 1023.1 0 11.2 19.2 24.0 62.2 47.9 161.7
16 13:30 19.2 28 4.62 0.3 9 15 1023.4 0 11.0 19.1 23.8 61.6 46.9 158.4
16 13:20 19.5 28 4.7 0.5 7 7 1023.4 0 11.1 19.2 24.0 62.0 47.6 160.8
16 13:10 19.3 28 4.64 0.4 11 13 1023.5 0 11.0 19.1 23.8 61.7 47.1 159.0
16 13:00 19.3 29 4.81 0.8 9 11 1023.9 0 11.4 19.4 24.4 63.2 48.9 165.4
16 12:50 18.5 30 4.75 0.6 9 11 1024 0 11.3 19.5 24.4 63.3 48.8 164.7
16 12:40 18.4 30 4.72 0.5 9 13 1024.2 0 11.2 19.5 24.4 63.1 48.5 163.8
16 12:30 18.8 31 4.99 1.3 13 19 1024.5 0 11.8 19.7 25.1 65.2 51.2 173.3
16 12:20 18.2 30 4.66 0.4 9 11 1024.7 0 11.1 19.4 24.2 62.8 48.0 162.0
16 12:10 18.3 31 4.85 0.9 13 15 1024.9 0 11.5 19.7 24.8 64.4 50.0 169.1
16 12:00 18 33 5.07 1.5 13 19 1025.2 0 12.0 20.0 25.7 66.6 52.6 178.2
16 11:50 17.3 34 5.01 1.3 13 15 1025.4 0 11.9 20.1 25.7 66.6 52.4 177.4
16 11:40 17.5 35 5.22 1.9 15 17 1025.7 0 12.3 20.4 26.3 68.4 54.6 185.2
16 11:30 16.8 36 5.15 1.7 17 20 1026 0 12.2 20.4 26.3 68.3 54.3 184.1
16 11:20 17 37 5.35 2.2 15 17 1026 0 12.6 20.7 27.0 70.0 56.4 191.5
16 11:10 16.4 38 5.3 2.1 20 24 1026.1 0 12.5 20.7 27.0 70.0 56.3 190.9
16 11:00 16.1 39 5.35 2.2 19 24 1026.4 0 12.6 20.9 27.3 70.8 57.1 193.7
16 10:50 15.7 40 5.35 2.2 19 20 1026.3 0 12.6 21.0 27.4 71.1 57.4 194.6
16 10:40 15.5 42 5.55 2.7 19 20 1026.4 0 13.0 21.3 28.2 73.2 59.8 203.2
16 10:30 15.2 44 5.71 3 20 24 1026.5 0 13.4 21.6 28.8 75.0 61.9 210.5

Last Refresh: 17-Jul-2020 03:10:56

Most of the information presented on this site is sourced from the Bureau of Meteorology.  Copyright in all material sourced from the Bureau of Meteorology resides with the Commonwealth of Australia.